sensor_id;sensor_type;location;lat;lon;timestamp;P1;durP1;ratioP1;P2;durP2;ratioP2
71091;SDS011;58751;50.708;7.134;2022-11-20T00:01:19;24.53;;;13.17;;
71091;SDS011;58751;50.708;7.134;2022-11-20T00:03:45;22.25;;;13.45;;
71091;SDS011;58751;50.708;7.134;2022-11-20T00:06:12;18.20;;;13.27;;
71091;SDS011;58751;50.708;7.134;2022-11-20T00:08:38;25.77;;;15.23;;
71091;SDS011;58751;50.708;7.134;2022-11-20T00:11:03;19.87;;;14.07;;
71091;SDS011;58751;50.708;7.134;2022-11-20T00:13:29;20.33;;;12.50;;
71091;SDS011;58751;50.708;7.134;2022-11-20T00:15:56;23.33;;;13.43;;
71091;SDS011;58751;50.708;7.134;2022-11-20T00:18:22;21.50;;;13.18;;
71091;SDS011;58751;50.708;7.134;2022-11-20T00:20:47;21.60;;;14.60;;
71091;SDS011;58751;50.708;7.134;2022-11-20T00:23:13;21.90;;;12.80;;
71091;SDS011;58751;50.708;7.134;2022-11-20T00:25:38;19.45;;;12.98;;
71091;SDS011;58751;50.708;7.134;2022-11-20T00:28:04;23.97;;;15.00;;
71091;SDS011;58751;50.708;7.134;2022-11-20T00:30:29;22.47;;;13.73;;
71091;SDS011;58751;50.708;7.134;2022-11-20T00:32:55;21.90;;;13.43;;
71091;SDS011;58751;50.708;7.134;2022-11-20T00:35:21;26.92;;;14.20;;
71091;SDS011;58751;50.708;7.134;2022-11-20T00:37:46;25.60;;;15.80;;
71091;SDS011;58751;50.708;7.134;2022-11-20T00:40:13;23.57;;;15.83;;
71091;SDS011;58751;50.708;7.134;2022-11-20T00:42:38;28.33;;;15.57;;
71091;SDS011;58751;50.708;7.134;2022-11-20T00:45:03;25.57;;;14.87;;
71091;SDS011;58751;50.708;7.134;2022-11-20T00:47:29;26.63;;;15.80;;
71091;SDS011;58751;50.708;7.134;2022-11-20T00:49:54;24.47;;;14.27;;
71091;SDS011;58751;50.708;7.134;2022-11-20T00:52:19;26.63;;;15.37;;
71091;SDS011;58751;50.708;7.134;2022-11-20T00:54:44;27.97;;;16.33;;
71091;SDS011;58751;50.708;7.134;2022-11-20T00:57:11;26.17;;;15.77;;
71091;SDS011;58751;50.708;7.134;2022-11-20T00:59:36;20.90;;;14.30;;
71091;SDS011;58751;50.708;7.134;2022-11-20T01:02:01;25.17;;;15.27;;
71091;SDS011;58751;50.708;7.134;2022-11-20T01:04:26;25.77;;;16.17;;
71091;SDS011;58751;50.708;7.134;2022-11-20T01:06:52;24.10;;;15.00;;
71091;SDS011;58751;50.708;7.134;2022-11-20T01:09:17;19.57;;;12.87;;
71091;SDS011;58751;50.708;7.134;2022-11-20T01:11:42;23.53;;;14.20;;
71091;SDS011;58751;50.708;7.134;2022-11-20T01:14:11;24.53;;;14.13;;
71091;SDS011;58751;50.708;7.134;2022-11-20T01:16:37;21.13;;;13.90;;
71091;SDS011;58751;50.708;7.134;2022-11-20T01:19:04;26.27;;;15.20;;
71091;SDS011;58751;50.708;7.134;2022-11-20T01:21:30;23.73;;;14.25;;
71091;SDS011;58751;50.708;7.134;2022-11-20T01:23:56;23.98;;;14.35;;
71091;SDS011;58751;50.708;7.134;2022-11-20T01:26:22;23.13;;;14.70;;
71091;SDS011;58751;50.708;7.134;2022-11-20T01:28:47;21.48;;;13.68;;
71091;SDS011;58751;50.708;7.134;2022-11-20T01:31:15;20.67;;;12.67;;
71091;SDS011;58751;50.708;7.134;2022-11-20T01:33:41;24.23;;;13.90;;
71091;SDS011;58751;50.708;7.134;2022-11-20T01:36:06;23.50;;;13.37;;
71091;SDS011;58751;50.708;7.134;2022-11-20T01:38:32;25.27;;;15.10;;
71091;SDS011;58751;50.708;7.134;2022-11-20T01:40:57;23.77;;;14.10;;
71091;SDS011;58751;50.708;7.134;2022-11-20T01:43:23;27.93;;;16.40;;
71091;SDS011;58751;50.708;7.134;2022-11-20T01:45:52;21.07;;;13.77;;
71091;SDS011;58751;50.708;7.134;2022-11-20T01:48:22;27.42;;;14.63;;
71091;SDS011;58751;50.708;7.134;2022-11-20T01:50:47;23.05;;;13.57;;
71091;SDS011;58751;50.708;7.134;2022-11-20T01:53:13;20.77;;;14.23;;
71091;SDS011;58751;50.708;7.134;2022-11-20T01:55:40;21.98;;;13.68;;
71091;SDS011;58751;50.708;7.134;2022-11-20T01:58:06;20.52;;;12.50;;
71091;SDS011;58751;50.708;7.134;2022-11-20T02:00:31;21.67;;;13.10;;
71091;SDS011;58751;50.708;7.134;2022-11-20T02:02:57;20.37;;;14.17;;
71091;SDS011;58751;50.708;7.134;2022-11-20T02:05:25;20.30;;;13.07;;
71091;SDS011;58751;50.708;7.134;2022-11-20T02:07:52;22.75;;;13.15;;
71091;SDS011;58751;50.708;7.134;2022-11-20T02:10:17;19.60;;;13.57;;
71091;SDS011;58751;50.708;7.134;2022-11-20T02:12:43;26.67;;;14.77;;
71091;SDS011;58751;50.708;7.134;2022-11-20T02:15:08;22.03;;;13.30;;
71091;SDS011;58751;50.708;7.134;2022-11-20T02:17:33;19.23;;;13.10;;
71091;SDS011;58751;50.708;7.134;2022-11-20T02:19:59;20.70;;;14.23;;
71091;SDS011;58751;50.708;7.134;2022-11-20T02:22:26;23.27;;;14.87;;
71091;SDS011;58751;50.708;7.134;2022-11-20T02:24:55;23.92;;;14.60;;
71091;SDS011;58751;50.708;7.134;2022-11-20T02:27:21;25.85;;;14.50;;
71091;SDS011;58751;50.708;7.134;2022-11-20T02:29:48;18.57;;;12.13;;
71091;SDS011;58751;50.708;7.134;2022-11-20T02:32:17;20.48;;;13.45;;
71091;SDS011;58751;50.708;7.134;2022-11-20T02:34:43;19.02;;;12.13;;
71091;SDS011;58751;50.708;7.134;2022-11-20T02:37:08;20.87;;;14.03;;
71091;SDS011;58751;50.708;7.134;2022-11-20T02:39:33;24.13;;;13.73;;
71091;SDS011;58751;50.708;7.134;2022-11-20T02:42:00;22.87;;;15.43;;
71091;SDS011;58751;50.708;7.134;2022-11-20T02:44:25;22.75;;;13.95;;
71091;SDS011;58751;50.708;7.134;2022-11-20T02:46:51;20.47;;;13.83;;
71091;SDS011;58751;50.708;7.134;2022-11-20T02:49:16;21.33;;;13.53;;
71091;SDS011;58751;50.708;7.134;2022-11-20T02:51:41;28.77;;;16.77;;
71091;SDS011;58751;50.708;7.134;2022-11-20T02:54:06;24.00;;;16.10;;
71091;SDS011;58751;50.708;7.134;2022-11-20T02:56:31;21.77;;;13.23;;
71091;SDS011;58751;50.708;7.134;2022-11-20T02:58:58;21.30;;;15.37;;
71091;SDS011;58751;50.708;7.134;2022-11-20T03:01:23;22.35;;;13.05;;
71091;SDS011;58751;50.708;7.134;2022-11-20T03:03:48;21.73;;;14.50;;
71091;SDS011;58751;50.708;7.134;2022-11-20T03:06:14;25.40;;;16.10;;
71091;SDS011;58751;50.708;7.134;2022-11-20T03:08:39;21.20;;;14.00;;
71091;SDS011;58751;50.708;7.134;2022-11-20T03:11:05;22.63;;;14.60;;
71091;SDS011;58751;50.708;7.134;2022-11-20T03:13:30;20.08;;;14.23;;
71091;SDS011;58751;50.708;7.134;2022-11-20T03:15:57;22.80;;;13.70;;
71091;SDS011;58751;50.708;7.134;2022-11-20T03:18:22;21.35;;;14.52;;
71091;SDS011;58751;50.708;7.134;2022-11-20T03:20:47;22.23;;;13.70;;
71091;SDS011;58751;50.708;7.134;2022-11-20T03:23:12;23.70;;;15.77;;
71091;SDS011;58751;50.708;7.134;2022-11-20T03:25:37;24.13;;;14.70;;
71091;SDS011;58751;50.708;7.134;2022-11-20T03:28:03;26.07;;;15.80;;
71091;SDS011;58751;50.708;7.134;2022-11-20T03:30:28;21.53;;;14.03;;
71091;SDS011;58751;50.708;7.134;2022-11-20T03:32:54;23.37;;;14.00;;
71091;SDS011;58751;50.708;7.134;2022-11-20T03:35:20;23.80;;;14.32;;
71091;SDS011;58751;50.708;7.134;2022-11-20T03:37:45;24.10;;;14.63;;
71091;SDS011;58751;50.708;7.134;2022-11-20T03:40:10;21.03;;;13.47;;
71091;SDS011;58751;50.708;7.134;2022-11-20T03:42:35;26.87;;;14.00;;
71091;SDS011;58751;50.708;7.134;2022-11-20T03:45:01;24.30;;;14.70;;
71091;SDS011;58751;50.708;7.134;2022-11-20T03:47:26;22.17;;;13.37;;
71091;SDS011;58751;50.708;7.134;2022-11-20T03:49:52;19.03;;;13.83;;
71091;SDS011;58751;50.708;7.134;2022-11-20T03:52:17;22.70;;;16.13;;
71091;SDS011;58751;50.708;7.134;2022-11-20T03:54:43;25.17;;;16.37;;
71091;SDS011;58751;50.708;7.134;2022-11-20T03:57:08;27.30;;;14.40;;
71091;SDS011;58751;50.708;7.134;2022-11-20T03:59:33;24.83;;;15.27;;
71091;SDS011;58751;50.708;7.134;2022-11-20T04:01:58;21.20;;;14.30;;
71091;SDS011;58751;50.708;7.134;2022-11-20T04:04:23;23.17;;;14.37;;
71091;SDS011;58751;50.708;7.134;2022-11-20T04:06:50;29.10;;;14.87;;
71091;SDS011;58751;50.708;7.134;2022-11-20T04:09:15;26.13;;;14.43;;
71091;SDS011;58751;50.708;7.134;2022-11-20T04:11:40;25.43;;;16.20;;
71091;SDS011;58751;50.708;7.134;2022-11-20T04:14:06;26.80;;;14.53;;
71091;SDS011;58751;50.708;7.134;2022-11-20T04:16:37;26.48;;;15.02;;
71091;SDS011;58751;50.708;7.134;2022-11-20T04:19:03;27.30;;;16.20;;
71091;SDS011;58751;50.708;7.134;2022-11-20T04:21:29;28.20;;;15.68;;
71091;SDS011;58751;50.708;7.134;2022-11-20T04:23:56;23.63;;;14.57;;
71091;SDS011;58751;50.708;7.134;2022-11-20T04:26:21;21.52;;;14.70;;
71091;SDS011;58751;50.708;7.134;2022-11-20T04:28:47;23.40;;;15.53;;
71091;SDS011;58751;50.708;7.134;2022-11-20T04:31:13;26.87;;;15.87;;
71091;SDS011;58751;50.708;7.134;2022-11-20T04:33:38;33.05;;;17.13;;
71091;SDS011;58751;50.708;7.134;2022-11-20T04:36:05;29.10;;;16.60;;
71091;SDS011;58751;50.708;7.134;2022-11-20T04:38:30;30.05;;;16.60;;
71091;SDS011;58751;50.708;7.134;2022-11-20T04:40:58;25.03;;;14.27;;
71091;SDS011;58751;50.708;7.134;2022-11-20T04:43:23;27.77;;;16.30;;
71091;SDS011;58751;50.708;7.134;2022-11-20T04:45:50;21.73;;;13.43;;
71091;SDS011;58751;50.708;7.134;2022-11-20T04:48:15;22.52;;;14.50;;
71091;SDS011;58751;50.708;7.134;2022-11-20T04:50:40;19.63;;;13.67;;
71091;SDS011;58751;50.708;7.134;2022-11-20T04:53:05;25.03;;;13.80;;
71091;SDS011;58751;50.708;7.134;2022-11-20T04:55:30;23.37;;;15.53;;
71091;SDS011;58751;50.708;7.134;2022-11-20T04:57:57;23.30;;;14.30;;
71091;SDS011;58751;50.708;7.134;2022-11-20T05:00:22;23.20;;;13.40;;
71091;SDS011;58751;50.708;7.134;2022-11-20T05:02:47;22.60;;;13.63;;
71091;SDS011;58751;50.708;7.134;2022-11-20T05:05:13;25.50;;;14.17;;
71091;SDS011;58751;50.708;7.134;2022-11-20T05:07:38;18.63;;;13.30;;
71091;SDS011;58751;50.708;7.134;2022-11-20T05:10:03;23.77;;;15.17;;
71091;SDS011;58751;50.708;7.134;2022-11-20T05:12:29;24.07;;;14.67;;
71091;SDS011;58751;50.708;7.134;2022-11-20T05:14:55;22.77;;;13.87;;
71091;SDS011;58751;50.708;7.134;2022-11-20T05:17:20;28.17;;;16.13;;
71091;SDS011;58751;50.708;7.134;2022-11-20T05:19:45;25.83;;;15.13;;
71091;SDS011;58751;50.708;7.134;2022-11-20T05:22:11;23.30;;;15.70;;
71091;SDS011;58751;50.708;7.134;2022-11-20T05:24:36;27.07;;;14.23;;
71091;SDS011;58751;50.708;7.134;2022-11-20T05:27:01;24.10;;;12.70;;
71091;SDS011;58751;50.708;7.134;2022-11-20T05:29:26;19.97;;;13.50;;
71091;SDS011;58751;50.708;7.134;2022-11-20T05:31:53;30.77;;;14.20;;
71091;SDS011;58751;50.708;7.134;2022-11-20T05:34:18;27.80;;;16.25;;
71091;SDS011;58751;50.708;7.134;2022-11-20T05:36:43;24.50;;;14.90;;
71091;SDS011;58751;50.708;7.134;2022-11-20T05:39:08;20.60;;;14.67;;
71091;SDS011;58751;50.708;7.134;2022-11-20T05:41:34;23.10;;;13.80;;
71091;SDS011;58751;50.708;7.134;2022-11-20T05:43:59;26.07;;;15.60;;
71091;SDS011;58751;50.708;7.134;2022-11-20T05:46:24;22.13;;;15.20;;
71091;SDS011;58751;50.708;7.134;2022-11-20T05:48:51;30.43;;;16.00;;
71091;SDS011;58751;50.708;7.134;2022-11-20T05:51:17;25.63;;;14.40;;
71091;SDS011;58751;50.708;7.134;2022-11-20T05:53:42;24.45;;;14.27;;
71091;SDS011;58751;50.708;7.134;2022-11-20T05:56:09;24.43;;;14.87;;
71091;SDS011;58751;50.708;7.134;2022-11-20T05:58:35;23.83;;;13.13;;
71091;SDS011;58751;50.708;7.134;2022-11-20T06:01:04;26.13;;;14.03;;
71091;SDS011;58751;50.708;7.134;2022-11-20T06:03:29;24.20;;;14.70;;
71091;SDS011;58751;50.708;7.134;2022-11-20T06:05:58;23.50;;;14.10;;
71091;SDS011;58751;50.708;7.134;2022-11-20T06:08:23;21.13;;;13.30;;
71091;SDS011;58751;50.708;7.134;2022-11-20T06:10:48;30.50;;;17.50;;
71091;SDS011;58751;50.708;7.134;2022-11-20T06:13:13;22.87;;;14.53;;
71091;SDS011;58751;50.708;7.134;2022-11-20T06:15:38;20.33;;;14.60;;
71091;SDS011;58751;50.708;7.134;2022-11-20T06:18:04;26.73;;;16.67;;
71091;SDS011;58751;50.708;7.134;2022-11-20T06:20:29;22.50;;;14.53;;
71091;SDS011;58751;50.708;7.134;2022-11-20T06:22:55;22.43;;;13.70;;
71091;SDS011;58751;50.708;7.134;2022-11-20T06:25:21;25.30;;;14.77;;
71091;SDS011;58751;50.708;7.134;2022-11-20T06:27:46;29.30;;;16.67;;
71091;SDS011;58751;50.708;7.134;2022-11-20T06:30:11;27.00;;;13.97;;
71091;SDS011;58751;50.708;7.134;2022-11-20T06:32:37;22.90;;;14.67;;
71091;SDS011;58751;50.708;7.134;2022-11-20T06:35:02;25.07;;;14.07;;
71091;SDS011;58751;50.708;7.134;2022-11-20T06:37:27;21.30;;;13.70;;
71091;SDS011;58751;50.708;7.134;2022-11-20T06:39:54;32.23;;;15.50;;
71091;SDS011;58751;50.708;7.134;2022-11-20T06:42:19;24.38;;;14.18;;
71091;SDS011;58751;50.708;7.134;2022-11-20T06:44:44;25.87;;;15.73;;
71091;SDS011;58751;50.708;7.134;2022-11-20T06:47:09;26.03;;;13.93;;
71091;SDS011;58751;50.708;7.134;2022-11-20T06:49:35;27.60;;;16.17;;
71091;SDS011;58751;50.708;7.134;2022-11-20T06:52:00;25.57;;;14.47;;
71091;SDS011;58751;50.708;7.134;2022-11-20T06:54:25;25.50;;;15.70;;
71091;SDS011;58751;50.708;7.134;2022-11-20T06:56:52;26.90;;;15.57;;
71091;SDS011;58751;50.708;7.134;2022-11-20T06:59:17;26.35;;;13.82;;
71091;SDS011;58751;50.708;7.134;2022-11-20T07:01:42;23.13;;;14.50;;
71091;SDS011;58751;50.708;7.134;2022-11-20T07:04:07;24.30;;;15.07;;
71091;SDS011;58751;50.708;7.134;2022-11-20T07:06:32;23.50;;;14.10;;
71091;SDS011;58751;50.708;7.134;2022-11-20T07:08:58;24.13;;;13.73;;
71091;SDS011;58751;50.708;7.134;2022-11-20T07:11:23;19.57;;;13.10;;
71091;SDS011;58751;50.708;7.134;2022-11-20T07:13:49;25.80;;;13.60;;
71091;SDS011;58751;50.708;7.134;2022-11-20T07:16:15;21.55;;;13.75;;
71091;SDS011;58751;50.708;7.134;2022-11-20T07:18:40;19.37;;;11.90;;
71091;SDS011;58751;50.708;7.134;2022-11-20T07:21:06;19.60;;;13.03;;
71091;SDS011;58751;50.708;7.134;2022-11-20T07:23:31;18.98;;;12.90;;
71091;SDS011;58751;50.708;7.134;2022-11-20T07:25:57;22.87;;;13.40;;
71091;SDS011;58751;50.708;7.134;2022-11-20T07:28:22;21.37;;;12.90;;
71091;SDS011;58751;50.708;7.134;2022-11-20T07:30:50;21.57;;;12.43;;
71091;SDS011;58751;50.708;7.134;2022-11-20T07:33:15;19.27;;;12.65;;
71091;SDS011;58751;50.708;7.134;2022-11-20T07:35:41;18.20;;;11.60;;
71091;SDS011;58751;50.708;7.134;2022-11-20T07:38:06;20.97;;;14.07;;
71091;SDS011;58751;50.708;7.134;2022-11-20T07:40:31;18.60;;;13.23;;
71091;SDS011;58751;50.708;7.134;2022-11-20T07:42:56;19.90;;;12.30;;
71091;SDS011;58751;50.708;7.134;2022-11-20T07:45:22;19.17;;;12.70;;
71091;SDS011;58751;50.708;7.134;2022-11-20T07:47:49;19.63;;;12.30;;
71091;SDS011;58751;50.708;7.134;2022-11-20T07:50:14;18.30;;;11.40;;
71091;SDS011;58751;50.708;7.134;2022-11-20T07:52:40;18.10;;;12.20;;
71091;SDS011;58751;50.708;7.134;2022-11-20T07:55:05;15.87;;;12.13;;
71091;SDS011;58751;50.708;7.134;2022-11-20T07:57:31;18.00;;;12.47;;
71091;SDS011;58751;50.708;7.134;2022-11-20T07:59:56;18.20;;;12.20;;
71091;SDS011;58751;50.708;7.134;2022-11-20T08:02:21;20.57;;;13.43;;
71091;SDS011;58751;50.708;7.134;2022-11-20T08:04:47;18.20;;;11.80;;
71091;SDS011;58751;50.708;7.134;2022-11-20T08:07:13;21.83;;;13.93;;
71091;SDS011;58751;50.708;7.134;2022-11-20T08:09:38;20.77;;;13.00;;
71091;SDS011;58751;50.708;7.134;2022-11-20T08:12:03;27.60;;;15.13;;
71091;SDS011;58751;50.708;7.134;2022-11-20T08:14:28;23.63;;;15.63;;
71091;SDS011;58751;50.708;7.134;2022-11-20T08:16:54;22.80;;;14.73;;
71091;SDS011;58751;50.708;7.134;2022-11-20T08:19:19;20.80;;;12.50;;
71091;SDS011;58751;50.708;7.134;2022-11-20T08:21:45;19.90;;;13.30;;
71091;SDS011;58751;50.708;7.134;2022-11-20T08:24:11;19.77;;;12.07;;
71091;SDS011;58751;50.708;7.134;2022-11-20T08:26:36;19.73;;;13.30;;
71091;SDS011;58751;50.708;7.134;2022-11-20T08:29:02;23.07;;;14.60;;
71091;SDS011;58751;50.708;7.134;2022-11-20T08:31:27;21.67;;;12.82;;
71091;SDS011;58751;50.708;7.134;2022-11-20T08:33:53;22.60;;;13.53;;
71091;SDS011;58751;50.708;7.134;2022-11-20T08:36:18;18.90;;;13.00;;
71091;SDS011;58751;50.708;7.134;2022-11-20T08:38:47;21.03;;;13.37;;
71091;SDS011;58751;50.708;7.134;2022-11-20T08:41:13;21.85;;;14.00;;
71091;SDS011;58751;50.708;7.134;2022-11-20T08:43:38;19.27;;;12.83;;
71091;SDS011;58751;50.708;7.134;2022-11-20T08:46:03;21.90;;;12.80;;
71091;SDS011;58751;50.708;7.134;2022-11-20T08:48:28;17.20;;;12.20;;
71091;SDS011;58751;50.708;7.134;2022-11-20T08:50:56;20.40;;;14.00;;
71091;SDS011;58751;50.708;7.134;2022-11-20T08:53:22;19.05;;;13.65;;
71091;SDS011;58751;50.708;7.134;2022-11-20T08:55:48;20.43;;;14.70;;
71091;SDS011;58751;50.708;7.134;2022-11-20T08:58:13;25.20;;;14.25;;
71091;SDS011;58751;50.708;7.134;2022-11-20T09:00:39;20.47;;;15.90;;
71091;SDS011;58751;50.708;7.134;2022-11-20T09:03:04;21.67;;;13.17;;
71091;SDS011;58751;50.708;7.134;2022-11-20T09:05:29;25.80;;;15.00;;
71091;SDS011;58751;50.708;7.134;2022-11-20T09:07:55;21.43;;;14.93;;
71091;SDS011;58751;50.708;7.134;2022-11-20T09:10:20;20.80;;;12.98;;
71091;SDS011;58751;50.708;7.134;2022-11-20T09:12:49;21.40;;;13.10;;
71091;SDS011;58751;50.708;7.134;2022-11-20T09:15:14;23.67;;;16.55;;
71091;SDS011;58751;50.708;7.134;2022-11-20T09:17:40;22.63;;;14.37;;
71091;SDS011;58751;50.708;7.134;2022-11-20T09:20:05;24.80;;;16.27;;
71091;SDS011;58751;50.708;7.134;2022-11-20T09:22:30;24.27;;;13.63;;
71091;SDS011;58751;50.708;7.134;2022-11-20T09:24:56;22.40;;;14.23;;
71091;SDS011;58751;50.708;7.134;2022-11-20T09:27:21;21.60;;;14.67;;
71091;SDS011;58751;50.708;7.134;2022-11-20T09:29:47;24.60;;;13.83;;
71091;SDS011;58751;50.708;7.134;2022-11-20T09:32:13;25.67;;;15.70;;
71091;SDS011;58751;50.708;7.134;2022-11-20T09:34:38;23.93;;;14.60;;
71091;SDS011;58751;50.708;7.134;2022-11-20T09:37:03;24.57;;;14.50;;
71091;SDS011;58751;50.708;7.134;2022-11-20T09:39:28;22.00;;;14.17;;
71091;SDS011;58751;50.708;7.134;2022-11-20T09:41:56;24.00;;;14.27;;
71091;SDS011;58751;50.708;7.134;2022-11-20T09:44:31;23.92;;;16.45;;
71091;SDS011;58751;50.708;7.134;2022-11-20T09:47:05;26.80;;;16.67;;
71091;SDS011;58751;50.708;7.134;2022-11-20T09:49:36;26.52;;;14.65;;
71091;SDS011;58751;50.708;7.134;2022-11-20T09:52:06;19.88;;;12.68;;
71091;SDS011;58751;50.708;7.134;2022-11-20T09:54:33;22.05;;;14.07;;
71091;SDS011;58751;50.708;7.134;2022-11-20T09:57:00;17.23;;;12.43;;
71091;SDS011;58751;50.708;7.134;2022-11-20T09:59:30;16.80;;;11.30;;
71091;SDS011;58751;50.708;7.134;2022-11-20T10:01:56;21.00;;;14.00;;
71091;SDS011;58751;50.708;7.134;2022-11-20T10:04:23;20.10;;;13.80;;
71091;SDS011;58751;50.708;7.134;2022-11-20T10:06:50;19.52;;;13.27;;
71091;SDS011;58751;50.708;7.134;2022-11-20T10:09:20;21.23;;;13.63;;
71091;SDS011;58751;50.708;7.134;2022-11-20T10:11:48;20.50;;;12.93;;
71091;SDS011;58751;50.708;7.134;2022-11-20T10:14:20;18.73;;;12.05;;
71091;SDS011;58751;50.708;7.134;2022-11-20T10:16:50;19.45;;;12.60;;
71091;SDS011;58751;50.708;7.134;2022-11-20T10:19:22;21.23;;;13.85;;
71091;SDS011;58751;50.708;7.134;2022-11-20T10:21:55;20.92;;;11.93;;
71091;SDS011;58751;50.708;7.134;2022-11-20T10:24:26;14.70;;;11.48;;
71091;SDS011;58751;50.708;7.134;2022-11-20T10:26:57;18.80;;;12.38;;
71091;SDS011;58751;50.708;7.134;2022-11-20T10:29:26;15.65;;;11.00;;
71091;SDS011;58751;50.708;7.134;2022-11-20T10:31:54;17.50;;;11.70;;
71091;SDS011;58751;50.708;7.134;2022-11-20T10:34:21;16.45;;;11.75;;
71091;SDS011;58751;50.708;7.134;2022-11-20T10:36:49;15.82;;;10.45;;
71091;SDS011;58751;50.708;7.134;2022-11-20T10:39:18;28.30;;;11.90;;
71091;SDS011;58751;50.708;7.134;2022-11-20T10:41:48;17.42;;;11.93;;
71091;SDS011;58751;50.708;7.134;2022-11-20T10:44:14;16.65;;;11.18;;
71091;SDS011;58751;50.708;7.134;2022-11-20T10:46:42;15.63;;;10.63;;
71091;SDS011;58751;50.708;7.134;2022-11-20T10:49:12;16.08;;;11.65;;
71091;SDS011;58751;50.708;7.134;2022-11-20T10:51:39;13.57;;;10.77;;
71091;SDS011;58751;50.708;7.134;2022-11-20T10:54:11;18.90;;;11.77;;
71091;SDS011;58751;50.708;7.134;2022-11-20T10:56:40;17.52;;;11.63;;
71091;SDS011;58751;50.708;7.134;2022-11-20T10:59:11;21.23;;;11.63;;
71091;SDS011;58751;50.708;7.134;2022-11-20T11:01:41;17.83;;;11.20;;
71091;SDS011;58751;50.708;7.134;2022-11-20T11:04:07;16.13;;;12.27;;
71091;SDS011;58751;50.708;7.134;2022-11-20T11:06:39;15.95;;;10.10;;
71091;SDS011;58751;50.708;7.134;2022-11-20T11:09:17;17.80;;;11.20;;
71091;SDS011;58751;50.708;7.134;2022-11-20T11:11:47;16.88;;;11.70;;
71091;SDS011;58751;50.708;7.134;2022-11-20T11:14:13;18.05;;;11.30;;
71091;SDS011;58751;50.708;7.134;2022-11-20T11:16:44;19.73;;;13.07;;
71091;SDS011;58751;50.708;7.134;2022-11-20T11:19:13;15.20;;;10.90;;
71091;SDS011;58751;50.708;7.134;2022-11-20T11:21:38;16.53;;;11.73;;
71091;SDS011;58751;50.708;7.134;2022-11-20T11:24:15;19.30;;;12.68;;
71091;SDS011;58751;50.708;7.134;2022-11-20T11:26:51;18.27;;;11.50;;
71091;SDS011;58751;50.708;7.134;2022-11-20T11:29:17;17.38;;;12.90;;
71091;SDS011;58751;50.708;7.134;2022-11-20T11:31:43;21.43;;;12.87;;
71091;SDS011;58751;50.708;7.134;2022-11-20T11:34:11;19.40;;;13.57;;
71091;SDS011;58751;50.708;7.134;2022-11-20T11:36:36;22.20;;;13.73;;
71091;SDS011;58751;50.708;7.134;2022-11-20T11:39:02;25.73;;;15.23;;
71091;SDS011;58751;50.708;7.134;2022-11-20T11:41:29;24.58;;;15.90;;
71091;SDS011;58751;50.708;7.134;2022-11-20T11:43:57;20.17;;;13.88;;
71091;SDS011;58751;50.708;7.134;2022-11-20T11:46:26;23.55;;;14.57;;
71091;SDS011;58751;50.708;7.134;2022-11-20T11:48:56;21.35;;;12.98;;
71091;SDS011;58751;50.708;7.134;2022-11-20T11:51:22;18.05;;;11.82;;
71091;SDS011;58751;50.708;7.134;2022-11-20T11:53:47;24.40;;;12.27;;
71091;SDS011;58751;50.708;7.134;2022-11-20T11:56:12;22.70;;;12.70;;
71091;SDS011;58751;50.708;7.134;2022-11-20T11:58:41;21.50;;;12.97;;
71091;SDS011;58751;50.708;7.134;2022-11-20T12:01:12;19.90;;;13.40;;
71091;SDS011;58751;50.708;7.134;2022-11-20T12:03:50;23.55;;;13.05;;
71091;SDS011;58751;50.708;7.134;2022-11-20T12:06:17;19.85;;;11.88;;
71091;SDS011;58751;50.708;7.134;2022-11-20T12:08:43;20.00;;;12.60;;
71091;SDS011;58751;50.708;7.134;2022-11-20T12:11:11;19.25;;;12.15;;
71091;SDS011;58751;50.708;7.134;2022-11-20T12:13:40;17.80;;;11.13;;
71091;SDS011;58751;50.708;7.134;2022-11-20T12:16:12;17.67;;;12.23;;
71091;SDS011;58751;50.708;7.134;2022-11-20T12:18:38;20.00;;;12.18;;
71091;SDS011;58751;50.708;7.134;2022-11-20T12:21:06;18.77;;;11.20;;
71091;SDS011;58751;50.708;7.134;2022-11-20T12:23:35;18.95;;;11.27;;
71091;SDS011;58751;50.708;7.134;2022-11-20T12:26:03;20.60;;;12.65;;
71091;SDS011;58751;50.708;7.134;2022-11-20T12:28:35;22.52;;;12.77;;
71091;SDS011;58751;50.708;7.134;2022-11-20T12:31:08;18.48;;;12.05;;
71091;SDS011;58751;50.708;7.134;2022-11-20T12:33:44;19.63;;;12.55;;
71091;SDS011;58751;50.708;7.134;2022-11-20T12:36:16;26.90;;;13.90;;
71091;SDS011;58751;50.708;7.134;2022-11-20T12:38:58;17.67;;;11.25;;
71091;SDS011;58751;50.708;7.134;2022-11-20T12:41:29;21.67;;;12.18;;
71091;SDS011;58751;50.708;7.134;2022-11-20T12:44:01;19.45;;;12.52;;
71091;SDS011;58751;50.708;7.134;2022-11-20T12:46:30;17.55;;;11.23;;
71091;SDS011;58751;50.708;7.134;2022-11-20T12:49:11;17.40;;;11.18;;
71091;SDS011;58751;50.708;7.134;2022-11-20T12:51:51;19.48;;;11.45;;
71091;SDS011;58751;50.708;7.134;2022-11-20T12:57:01;19.75;;;12.05;;
71091;SDS011;58751;50.708;7.134;2022-11-20T12:59:33;18.98;;;11.77;;
71091;SDS011;58751;50.708;7.134;2022-11-20T13:02:05;17.67;;;11.52;;
71091;SDS011;58751;50.708;7.134;2022-11-20T13:04:42;19.42;;;12.13;;
71091;SDS011;58751;50.708;7.134;2022-11-20T13:07:13;17.05;;;11.75;;
71091;SDS011;58751;50.708;7.134;2022-11-20T13:09:40;18.77;;;11.85;;
71091;SDS011;58751;50.708;7.134;2022-11-20T13:12:06;18.42;;;11.63;;
71091;SDS011;58751;50.708;7.134;2022-11-20T13:14:33;18.35;;;12.63;;
71091;SDS011;58751;50.708;7.134;2022-11-20T13:17:04;19.65;;;12.40;;
71091;SDS011;58751;50.708;7.134;2022-11-20T13:19:29;15.43;;;11.20;;
71091;SDS011;58751;50.708;7.134;2022-11-20T13:21:56;14.27;;;9.90;;
71091;SDS011;58751;50.708;7.134;2022-11-20T13:24:23;19.90;;;10.98;;
71091;SDS011;58751;50.708;7.134;2022-11-20T13:26:58;16.85;;;11.57;;
71091;SDS011;58751;50.708;7.134;2022-11-20T13:29:24;17.27;;;12.25;;
71091;SDS011;58751;50.708;7.134;2022-11-20T13:31:49;16.53;;;10.93;;
71091;SDS011;58751;50.708;7.134;2022-11-20T13:34:22;21.33;;;12.00;;
71091;SDS011;58751;50.708;7.134;2022-11-20T13:36:48;14.65;;;10.07;;
71091;SDS011;58751;50.708;7.134;2022-11-20T13:39:24;19.17;;;11.02;;
71091;SDS011;58751;50.708;7.134;2022-11-20T13:41:53;19.17;;;11.93;;
71091;SDS011;58751;50.708;7.134;2022-11-20T13:44:22;21.35;;;12.70;;
71091;SDS011;58751;50.708;7.134;2022-11-20T13:46:48;18.38;;;12.20;;
71091;SDS011;58751;50.708;7.134;2022-11-20T13:49:17;15.10;;;9.87;;
71091;SDS011;58751;50.708;7.134;2022-11-20T13:51:43;22.38;;;12.95;;
71091;SDS011;58751;50.708;7.134;2022-11-20T13:56:57;13.13;;;11.00;;
71091;SDS011;58751;50.708;7.134;2022-11-20T13:59:37;17.55;;;11.13;;
71091;SDS011;58751;50.708;7.134;2022-11-20T14:02:05;18.88;;;12.57;;
71091;SDS011;58751;50.708;7.134;2022-11-20T14:04:35;15.70;;;11.13;;
71091;SDS011;58751;50.708;7.134;2022-11-20T14:07:00;14.80;;;8.98;;
71091;SDS011;58751;50.708;7.134;2022-11-20T14:09:26;21.60;;;12.43;;
71091;SDS011;58751;50.708;7.134;2022-11-20T14:11:52;18.23;;;11.55;;
71091;SDS011;58751;50.708;7.134;2022-11-20T14:14:19;19.07;;;11.77;;
71091;SDS011;58751;50.708;7.134;2022-11-20T14:16:45;15.52;;;10.73;;
71091;SDS011;58751;50.708;7.134;2022-11-20T14:19:23;17.00;;;10.57;;
71091;SDS011;58751;50.708;7.134;2022-11-20T14:21:51;14.68;;;11.13;;
71091;SDS011;58751;50.708;7.134;2022-11-20T14:24:18;14.23;;;9.20;;